메인 페이지
METAR-TAF:

METAR-TAF

공항 :

Aeroflex-Andover Airport

Andover, 뉴저지, 미국

위도: 41-00-32N, 경도: 074-44-12W, 고도: 177m

현재 날씨관측

예보는 23분 전, 18:54시(UTC)에 발표되었습니다.
북북서9kt, 순간 최대 풍속 20kt서북서풍과 풍을 오가는
온도 8°C
습도 49%
기압 1016 hPa

METAR: K12N 231854Z AUTO 34009G20KT 290V010 08/M02 A3000 RMK AO1 SLP163 T00831022

시각: 14:17 (19:17 UTC)


TAF: 누락

4,000개 이상의 공항 관측 자료 및 예보 (METAR 및 TAF 보고).

지도상에서 검색 가능한 기상관측소가 노란 점과 빨간 점으로 표시되어 있습니다.

기상관측소 명을 보려면 표시 위로 마우스를 이동하세요.

날씨 관측과 예보를 보려면 클릭하세요.

지도 변경 : 확대하려면 엑스 표시가 있는 녹색 버튼, 축소하려면 빼기 표시가 있는 녹색 버튼, 다음 페이지의 지도를 보려면 녹색 화살표를 클릭하세요.


METAR-TAF: